Time;durP1;ratioP1;P1;durP2;ratioP2;P2;SDS_P1;SDS_P2;PMS_P1;PMS_P2;Temp;Humidity;BMP_temperature;BMP_pressure;BME280_temperature;BME280_humidity;BME280_pressure;Samples;Min_cycle;Max_cycle;Signal;HPM_P1;HPM_P2
2022/08/25 00:01:34;;;;;;;10.40;4.37;;;;;;;28.72;100.00;101518.25;5075882;28;19976;-55
2022/08/25 00:04:01;;;;;;;7.20;4.27;;;;;;;28.72;100.00;101515.47;5082916;28;20040;-55
2022/08/25 00:06:27;;;;;;;7.37;4.63;;;;;;;28.58;100.00;101515.47;5080333;28;20034;-55
2022/08/25 00:08:58;;;;;;;;;;;;;;;28.64;100.00;101516.19;5080116;28;20048;-55
2022/08/25 00:11:26;;;;;;;8.00;4.07;;;;;;;28.63;100.00;101512.59;5084074;28;19913;-54
2022/08/25 00:13:56;;;;;;;10.77;4.77;;;;;;;28.60;100.00;101512.38;5084789;28;20033;-54
2022/08/25 00:16:22;;;;;;;5.63;3.40;;;;;;;28.63;100.00;101509.84;5079626;28;20037;-52
2022/08/25 00:18:52;;;;;;;7.30;3.53;;;;;;;28.57;100.00;101513.00;5071471;28;20048;-54
2022/08/25 00:21:18;;;;;;;7.97;3.40;;;;;;;28.65;100.00;101517.81;5076012;28;20085;-54
2022/08/25 00:23:44;;;;;;;9.13;3.63;;;;;;;28.18;100.00;101515.03;5075213;28;20063;-55
2022/08/25 00:26:11;;;;;;;7.03;4.10;;;;;;;28.51;100.00;101516.97;5077329;28;20033;-55
2022/08/25 00:28:38;;;;;;;10.07;3.97;;;;;;;28.46;100.00;101517.84;5074966;28;20033;-56
2022/08/25 00:31:05;;;;;;;7.47;3.90;;;;;;;28.54;100.00;101516.34;5076380;28;20044;-56
2022/08/25 00:33:32;;;;;;;7.07;4.07;;;;;;;28.40;100.00;101522.66;5075218;28;20085;-56
2022/08/25 00:35:59;;;;;;;8.83;4.57;;;;;;;28.29;100.00;101512.91;5071746;28;20044;-57
2022/08/25 00:38:25;;;;;;;11.40;4.00;;;;;;;28.16;100.00;101517.25;5075483;28;20044;-54
2022/08/25 00:41:04;;;;;;;;;;;;;;;28.21;100.00;101521.88;5077200;28;20107;-56
2022/08/25 00:43:41;;;;;;;7.03;4.10;;;;;;;28.16;100.00;101518.09;5075932;28;19913;-56
2022/08/25 00:46:12;;;;;;;4.95;3.58;;;;;;;28.27;100.00;101517.91;5078869;28;20032;-53
2022/08/25 00:48:41;;;;;;;6.30;4.13;;;;;;;28.27;100.00;101518.75;5079647;28;20040;-55
2022/08/25 00:51:10;;;;;;;8.57;3.90;;;;;;;28.15;100.00;101512.84;5075770;28;20067;-55
2022/08/25 00:53:36;;;;;;;10.20;3.97;;;;;;;28.16;100.00;101518.09;5078265;28;20033;-55
2022/08/25 00:56:01;;;;;;;;;;;;;;;28.18;100.00;101515.03;5080417;28;20060;-57
2022/08/25 00:58:30;;;;;;;10.93;4.30;;;;;;;28.10;100.00;101521.19;5081316;28;19954;-58
2022/08/25 01:00:57;;;;;;;8.77;4.33;;;;;;;28.00;100.00;101517.44;5083044;28;20040;-53
2022/08/25 01:03:26;;;;;;;7.70;3.97;;;;;;;27.95;100.00;101519.47;5081669;28;20128;-56
2022/08/25 01:05:52;;;;;;;8.20;4.33;;;;;;;27.85;100.00;101513.00;5080002;28;20033;-53
2022/08/25 01:08:24;;;;;;;6.93;4.40;;;;;;;27.92;100.00;101512.63;5075251;28;20116;-53
2022/08/25 01:10:50;;;;;;;14.17;4.97;;;;;;;27.89;100.00;101511.28;5078645;28;20047;-55
2022/08/25 01:13:24;;;;;;;4.87;3.73;;;;;;;27.85;100.00;101507.50;5075509;28;20074;-57
2022/08/25 01:15:53;;;;;;;10.20;4.97;;;;;;;27.69;100.00;101503.38;5075241;28;20056;-56
2022/08/25 01:18:19;;;;;;;6.50;4.47;;;;;;;27.78;100.00;101501.56;5073860;28;20069;-53
2022/08/25 01:20:48;;;;;;;;;;;;;;;27.66;100.00;101503.94;5074313;28;20039;-57
2022/08/25 01:23:14;;;;;;;8.57;4.90;;;;;;;27.67;100.00;101500.06;5079292;28;19920;-56
2022/08/25 01:25:55;;;;;;;8.53;5.13;;;;;;;27.61;100.00;101500.16;5076428;28;20024;-54
2022/08/25 01:28:21;;;;;;;7.13;4.23;;;;;;;27.63;100.00;101508.91;5076423;28;20063;-55
2022/08/25 01:30:46;;;;;;;;;;;;;;;27.56;100.00;101499.38;5080570;28;20032;-54
2022/08/25 01:33:12;;;;;;;8.57;5.00;;;;;;;27.59;100.00;101505.13;5080005;28;19936;-57
2022/08/25 01:35:38;;;;;;;;;;;;;;;27.52;100.00;101504.69;5079705;28;20112;-54
2022/08/25 01:38:06;;;;;;;10.10;4.90;;;;;;;27.56;100.00;101505.72;5075316;28;19919;-55
2022/08/25 01:40:34;;;;;;;11.23;4.93;;;;;;;27.59;100.00;101505.13;5080444;28;20033;-55
2022/08/25 01:43:05;;;;;;;8.40;5.70;;;;;;;27.45;100.00;101507.75;5073245;28;20033;-55
2022/08/25 01:45:33;;;;;;;7.83;4.63;;;;;;;27.60;100.00;101505.94;5074856;28;20037;-55
2022/08/25 01:47:58;;;;;;;7.23;4.47;;;;;;;27.55;100.00;101501.34;5074603;28;20028;-58
2022/08/25 01:50:24;;;;;;;;;;;;;;;27.60;100.00;101504.00;5069270;28;20055;-54
2022/08/25 01:53:02;;;;;;;8.10;4.77;;;;;;;27.75;100.00;101496.66;5073287;28;19913;-57
2022/08/25 01:55:27;;;;;;;10.13;4.97;;;;;;;27.87;100.00;101499.78;5072099;28;20024;-58
2022/08/25 01:57:54;;;;;;;11.37;5.53;;;;;;;27.95;100.00;101505.75;5075929;28;20033;-57
2022/08/25 02:00:20;;;;;;;;;;;;;;;27.94;100.00;101509.59;5075318;28;20100;-56
2022/08/25 02:02:46;;;;;;;16.42;4.97;;;;;;;27.94;100.00;101507.66;5078197;28;19935;-58
2022/08/25 02:05:12;;;;;;;;;;;;;;;27.93;100.00;101513.47;5076689;28;20096;-55
2022/08/25 02:07:39;;;;;;;7.28;5.00;;;;;;;27.84;100.00;101505.06;5078823;28;19917;-53
2022/08/25 02:10:04;;;;;;;;;;;;;;;27.98;100.00;101513.38;5077517;28;20039;-57
2022/08/25 02:12:32;;;;;;;12.80;4.72;;;;;;;28.02;100.00;101506.16;5089829;28;19954;-57
2022/08/25 02:15:00;;;;;;;11.07;4.73;;;;;;;28.03;100.00;101508.63;5073333;28;20047;-58
2022/08/25 02:17:27;;;;;;;11.47;5.40;;;;;;;28.00;100.00;101508.41;5074174;28;20028;-57
2022/08/25 02:19:54;;;;;;;13.37;5.20;;;;;;;27.92;100.00;101509.88;5075364;28;20052;-58
2022/08/25 02:22:20;;;;;;;8.70;4.53;;;;;;;27.97;100.00;101509.00;5078346;28;20092;-55
2022/08/25 02:24:45;;;;;;;;;;;;;;;27.97;100.00;101500.75;5070093;28;20039;-55
2022/08/25 02:27:11;;;;;;;10.33;4.43;;;;;;;27.93;100.00;101502.47;5073045;28;19923;-57
2022/08/25 02:29:36;;;;;;;;;;;;;;;27.87;100.00;101499.78;5072040;28;20056;-55
2022/08/25 02:32:02;;;;;;;11.00;4.67;;;;;;;27.93;100.00;101496.97;5077021;28;19912;-57
2022/08/25 02:34:28;;;;;;;8.77;4.60;;;;;;;27.93;100.00;101496.97;5075230;28;20059;-54
2022/08/25 02:36:54;;;;;;;;;;;;;;;27.83;100.00;101496.00;5075052;28;20045;-55
2022/08/25 02:39:19;;;;;;;7.07;4.73;;;;;;;27.62;100.00;101490.00;5077668;28;19916;-55
2022/08/25 02:41:44;;;;;;;;;;;;;;;27.56;100.00;101491.97;5079861;28;20040;-56
2022/08/25 02:44:10;;;;;;;10.43;4.53;;;;;;;27.73;100.00;101487.91;5073445;28;19918;-56
2022/08/25 02:46:36;;;;;;;;;;;;;;;27.70;100.00;101488.50;5076603;28;20079;-58
2022/08/25 02:49:03;;;;;;;8.80;5.00;;;;;;;27.67;100.00;101494.56;5075530;28;19923;-53
2022/08/25 02:51:29;;;;;;;9.23;4.43;;;;;;;27.53;100.00;101489.81;5079001;28;20120;-55
2022/08/25 02:53:56;;;;;;;;;;;;;;;27.51;100.00;101489.31;5079929;28;20041;-56
2022/08/25 02:56:21;;;;;;;7.15;4.80;;;;;;;27.62;100.00;101484.50;5070707;28;19924;-55
2022/08/25 02:58:47;;;;;;;;;;;;;;;27.60;100.00;101486.72;5075115;28;20045;-56
2022/08/25 03:01:13;;;;;;;14.63;4.53;;;;;;;27.63;100.00;101486.94;5075024;28;19912;-57
2022/08/25 03:03:41;;;;;;;8.20;4.50;;;;;;;27.76;100.00;101492.81;5069037;28;20025;-57
2022/08/25 03:06:07;;;;;;;8.57;4.60;;;;;;;27.52;100.00;101490.09;5072237;28;20036;-58
2022/08/25 03:08:34;;;;;;;10.17;4.07;;;;;;;27.54;100.00;101480.47;5073691;28;20036;-56
2022/08/25 03:11:00;;;;;;;8.83;5.03;;;;;;;27.60;100.00;101473.78;5079464;28;20053;-56
2022/08/25 03:13:25;;;;;;;;;;;;;;;27.66;100.00;101470.97;5077991;28;20029;-56
2022/08/25 03:15:51;;;;;;;11.37;5.10;;;;;;;27.65;100.00;101474.81;5078866;28;19912;-54
2022/08/25 03:18:16;;;;;;;;;;;;;;;27.61;100.00;101475.41;5077346;28;20032;-56
2022/08/25 03:20:43;;;;;;;7.67;4.07;;;;;;;27.45;100.00;101466.56;5078703;28;19936;-57
2022/08/25 03:23:09;;;;;;;8.50;4.77;;;;;;;27.46;100.00;101470.13;5078825;28;20032;-54
2022/08/25 03:28:19;;;;;;;8.77;4.83;;;;;;;27.42;100.00;101472.63;5079883;28;20033;-57
2022/08/25 03:30:45;;;;;;;5.83;4.33;;;;;;;27.42;100.00;101461.66;5080122;28;20043;-56
2022/08/25 03:33:11;;;;;;;;;;;;;;;27.22;100.00;101457.25;5081227;28;20037;-54
2022/08/25 03:35:37;;;;;;;9.60;5.00;;;;;;;27.30;100.00;101459.34;5077674;28;19916;-57
2022/08/25 03:38:02;;;;;;;;;;;;;;;27.38;100.00;101454.28;5078860;28;20063;-56
2022/08/25 03:40:28;;;;;;;11.90;4.70;;;;;;;27.39;100.00;101447.69;5076142;28;19952;-57
2022/08/25 03:42:55;;;;;;;10.40;4.63;;;;;;;27.28;100.00;101447.84;5077693;28;20029;-54
2022/08/25 03:45:21;;;;;;;6.90;4.67;;;;;;;27.24;100.00;101446.78;5078029;28;20078;-57
2022/08/25 03:47:49;;;;;;;9.00;4.90;;;;;;;27.29;100.00;101446.72;5077360;28;20063;-51
2022/08/25 03:50:17;;;;;;;10.67;4.90;;;;;;;27.34;100.00;101449.41;5078122;28;20039;-57
2022/08/25 03:52:44;;;;;;;13.30;5.50;;;;;;;27.31;100.00;101446.41;5078637;28;20028;-57
2022/08/25 03:55:12;;;;;;;11.03;4.97;;;;;;;27.33;100.00;101441.44;5077112;28;20116;-58
2022/08/25 03:57:38;;;;;;;9.67;4.80;;;;;;;27.36;100.00;101445.53;5079243;28;20084;-52
2022/08/25 04:00:07;;;;;;;9.33;5.03;;;;;;;27.41;100.00;101437.22;5080020;28;20044;-55
2022/08/25 04:02:38;;;;;;;9.67;5.00;;;;;;;27.34;100.00;101443.91;5081890;28;20039;-54
2022/08/25 04:05:04;;;;;;;10.27;4.03;;;;;;;27.27;100.00;101440.72;5077837;28;20096;-57
2022/08/25 04:07:30;;;;;;;8.53;4.77;;;;;;;27.32;100.00;101439.81;5077710;28;20044;-52
2022/08/25 04:09:55;;;;;;;;;;;;;;;27.11;100.00;101434.59;5079824;28;20037;-55
2022/08/25 04:12:21;;;;;;;10.87;4.80;;;;;;;26.99;100.00;101432.28;5079974;28;19912;-54
2022/08/25 04:14:47;;;;;;;9.37;4.60;;;;;;;27.07;100.00;101427.25;5081108;28;20037;-56
2022/08/25 04:17:13;;;;;;;8.20;4.77;;;;;;;27.21;100.00;101428.13;5074292;28;20021;-57
2022/08/25 04:19:39;;;;;;;6.88;4.50;;;;;;;27.00;100.00;101414.69;5073651;28;20059;-57
2022/08/25 04:22:05;;;;;;;15.60;5.53;;;;;;;27.09;100.00;101427.75;5074096;28;20036;-55
2022/08/25 04:24:31;;;;;;;18.73;4.95;;;;;;;27.19;100.00;101420.22;5075751;28;20032;-55
2022/08/25 04:26:56;;;;;;;15.93;5.22;;;;;;;26.63;100.00;101410.69;5075882;28;20041;-54
2022/08/25 04:29:22;;;;;;;;;;;;;;;26.62;100.00;101418.09;5080901;28;20032;-59
2022/08/25 04:31:49;;;;;;;11.90;5.80;;;;;;;26.78;100.00;101420.69;5074829;28;19914;-56
2022/08/25 04:34:17;;;;;;;6.67;4.63;;;;;;;26.66;100.00;101426.56;5079744;28;20029;-58
2022/08/25 04:36:43;;;;;;;15.10;6.17;;;;;;;26.33;100.00;101426.38;5081096;28;20041;-56
2022/08/25 04:39:08;;;;;;;11.05;5.57;;;;;;;26.36;100.00;101422.22;5081645;28;20044;-59
2022/08/25 04:41:34;;;;;;;13.07;4.32;;;;;;;26.38;100.00;101430.97;5080600;28;20131;-57
2022/08/25 04:44:01;;;;;;;24.83;11.63;;;;;;;26.41;100.00;101422.97;5081059;28;20109;-56
2022/08/25 04:46:30;;;;;;;11.23;5.87;;;;;;;26.40;100.00;101424.09;5075818;28;20041;-54
2022/08/25 04:48:56;;;;;;;14.57;5.07;;;;;;;26.42;100.00;101429.31;5073521;28;20037;-54
2022/08/25 04:51:26;;;;;;;11.23;4.63;;;;;;;26.52;100.00;101422.88;5079762;28;20028;-56
2022/08/25 04:53:53;;;;;;;11.27;5.00;;;;;;;26.70;100.00;101424.06;5077256;28;20048;-57
2022/08/25 04:56:23;;;;;;;13.10;4.50;;;;;;;26.21;100.00;101421.25;5075610;28;20055;-58
2022/08/25 04:58:49;;;;;;;17.47;6.33;;;;;;;26.07;100.00;101423.81;5079472;28;20035;-58
2022/08/25 05:01:20;;;;;;;13.40;5.20;;;;;;;26.12;100.00;101420.19;5081590;28;20056;-58
2022/08/25 05:03:47;;;;;;;12.97;5.53;;;;;;;26.11;100.00;101430.34;5079461;28;20033;-57
2022/08/25 05:06:13;;;;;;;11.40;4.13;;;;;;;26.30;100.00;101418.72;5080101;28;20052;-57
2022/08/25 05:08:39;;;;;;;7.40;4.57;;;;;;;26.33;100.00;101418.13;5077922;28;20048;-58
2022/08/25 05:11:07;;;;;;;7.43;4.55;;;;;;;26.28;100.00;101423.66;5081788;28;20068;-56
2022/08/25 05:13:33;;;;;;;8.83;4.13;;;;;;;26.20;100.00;101419.63;5077868;28;20037;-55
2022/08/25 05:15:59;;;;;;;8.33;4.13;;;;;;;26.30;100.00;101422.25;5078756;28;20029;-58
2022/08/25 05:18:28;;;;;;;8.00;4.10;;;;;;;26.17;100.00;101429.22;5076879;28;20056;-59
2022/08/25 05:20:59;;;;;;;11.10;4.00;;;;;;;26.18;100.00;101427.28;5075180;28;20044;-58
2022/08/25 05:23:25;;;;;;;15.77;4.23;;;;;;;26.29;100.00;101428.03;5080853;28;20033;-58
2022/08/25 05:25:51;;;;;;;8.85;3.80;;;;;;;26.42;100.00;101438.31;5079698;28;20041;-58
2022/08/25 05:28:19;;;;;;;10.13;4.10;;;;;;;26.42;100.00;101435.59;5079011;28;20052;-57
2022/08/25 05:30:48;;;;;;;11.37;3.80;;;;;;;26.36;100.00;101438.66;5078564;28;20058;-57
2022/08/25 05:33:15;;;;;;;16.43;3.87;;;;;;;26.32;100.00;101441.19;5078906;28;20047;-57
2022/08/25 05:35:41;;;;;;;10.80;4.37;;;;;;;26.23;100.00;101453.84;5078871;28;20052;-56
2022/08/25 05:38:07;;;;;;;8.70;4.43;;;;;;;26.22;100.00;101444.81;5061594;28;20064;-58
2022/08/25 05:40:32;;;;;;;;;;;;;;;26.32;100.00;101446.66;5077311;28;20028;-57
2022/08/25 05:42:58;;;;;;;12.20;4.40;;;;;;;26.07;100.00;101451.22;5079382;28;19912;-56
2022/08/25 05:45:24;;;;;;;6.75;3.47;;;;;;;26.47;100.00;101457.47;5078165;28;20059;-60
2022/08/25 05:47:50;;;;;;;11.17;4.43;;;;;;;26.33;100.00;101454.56;5079489;28;20104;-57
2022/08/25 05:50:16;;;;;;;14.63;4.47;;;;;;;26.37;100.00;101460.31;5081222;28;20044;-56
2022/08/25 05:52:42;;;;;;;11.80;4.67;;;;;;;26.48;100.00;101453.63;5079548;28;20043;-57
2022/08/25 05:55:08;;;;;;;9.53;4.03;;;;;;;26.29;100.00;101445.31;5078734;28;20059;-56
2022/08/25 05:57:34;;;;;;;8.27;3.90;;;;;;;26.30;100.00;101451.63;5081512;28;20025;-56
2022/08/25 06:00:01;;;;;;;6.20;4.00;;;;;;;26.26;100.00;101450.53;5078473;28;20131;-58
2022/08/25 06:02:47;;;;;;;7.27;3.83;;;;;;;26.44;100.00;101452.56;5076243;28;20037;-57
2022/08/25 06:05:21;;;;;;;11.20;4.20;;;;;;;26.47;100.00;101456.66;5078939;28;20029;-54
2022/08/25 06:07:50;;;;;;;15.57;4.60;;;;;;;26.56;100.00;101456.84;5073239;28;20093;-57
2022/08/25 06:10:18;;;;;;;8.20;4.17;;;;;;;26.62;100.00;101458.44;5077722;28;20045;-52
2022/08/25 06:12:45;;;;;;;11.10;3.63;;;;;;;26.83;100.00;101459.03;5076749;28;20040;-56
2022/08/25 06:15:15;;;;;;;;;;;;;;;26.95;100.00;101458.66;5078680;28;20108;-57
2022/08/25 06:17:41;;;;;;;60.20;33.23;;;;;;;27.07;100.00;101471.97;5079703;28;19913;-57
2022/08/25 06:20:10;;;;;;;21.53;7.43;;;;;;;27.00;100.00;101469.59;5083356;28;20092;-59
2022/08/25 06:22:36;;;;;;;10.20;3.97;;;;;;;27.07;100.00;101466.47;5077509;28;20092;-59
2022/08/25 06:25:06;;;;;;;63.40;33.90;;;;;;;26.94;100.00;101468.00;5081762;28;20025;-56
2022/08/25 06:27:32;;;;;;;152.33;83.77;;;;;;;27.60;100.00;101470.25;5077382;28;20041;-57
2022/08/25 06:29:58;;;;;;;40.23;20.70;;;;;;;27.69;100.00;101464.91;5075673;28;20033;-56
2022/08/25 06:32:23;;;;;;;;;;;;;;;27.89;100.00;101467.31;5075611;28;20072;-57
2022/08/25 06:34:50;;;;;;;17.97;7.23;;;;;;;27.69;100.00;101464.91;5073937;28;20073;-53
2022/08/25 06:37:16;;;;;;;47.50;25.90;;;;;;;27.40;100.00;101468.53;5076243;28;20098;-62
2022/08/25 06:39:41;;;;;;;;;;;;;;;27.81;100.00;101475.44;5079390;28;20036;-50
2022/08/25 06:42:08;;;;;;;11.40;3.60;;;;;;;27.87;100.00;101472.28;5073764;28;19962;-49
2022/08/25 06:44:34;;;;;;;8.97;3.90;;;;;;;27.58;100.00;101470.53;5075092;28;20028;-49
2022/08/25 06:46:59;;;;;;;;;;;;;;;27.69;100.00;101470.41;5079729;28;20047;-48
2022/08/25 06:49:27;;;;;;;8.77;3.33;;;;;;;27.17;100.00;101471.03;5077746;28;19913;-52
2022/08/25 06:51:53;;;;;;;7.73;3.20;;;;;;;27.19;100.00;101469.63;5077062;28;20044;-49
2022/08/25 06:54:18;;;;;;;;;;;;;;;27.27;100.00;101462.69;5076812;28;20033;-46
2022/08/25 06:56:44;;;;;;;9.17;3.43;;;;;;;27.19;100.00;101466.06;5074999;28;19980;-49
2022/08/25 06:59:10;;;;;;;;;;;;;;;27.13;100.00;101469.97;5079381;28;20055;-46
2022/08/25 07:01:35;;;;;;;12.77;3.80;;;;;;;27.27;100.00;101457.19;5077024;28;19913;-46
2022/08/25 07:04:03;;;;;;;6.67;3.60;;;;;;;27.22;100.00;101462.75;5078699;28;20024;-48
2022/08/25 07:06:34;;;;;;;12.83;3.33;;;;;;;27.46;100.00;101456.41;5076124;28;20025;-48
2022/08/25 07:09:00;;;;;;;11.83;4.17;;;;;;;27.75;100.00;101460.97;5076204;28;20078;-48
2022/08/25 07:11:25;;;;;;;17.20;4.07;;;;;;;27.79;100.00;101461.16;5079200;28;20023;-49
2022/08/25 07:13:52;;;;;;;10.07;3.37;;;;;;;28.16;100.00;101463.09;5075954;28;20096;-48
2022/08/25 07:16:20;;;;;;;22.73;3.87;;;;;;;28.09;100.00;101462.63;5078103;28;20045;-51
2022/08/25 07:18:46;;;;;;;8.77;3.03;;;;;;;28.18;100.00;101466.34;5076591;28;20041;-49
2022/08/25 07:21:13;;;;;;;7.70;3.00;;;;;;;28.28;100.00;101461.78;5079849;28;20039;-47
2022/08/25 07:23:39;;;;;;;6.37;2.80;;;;;;;28.31;100.00;101463.94;5078958;28;20070;-47
2022/08/25 07:26:22;;;;;;;11.53;3.40;;;;;;;28.53;100.00;101465.22;5076624;28;20543;-49
2022/08/25 07:28:48;;;;;;;7.20;2.87;;;;;;;28.53;100.00;101467.97;5081318;28;20036;-51
2022/08/25 07:31:13;;;;;;;;;;;;;;;28.52;98.95;101475.41;5077610;28;20096;-46
2022/08/25 07:35:14;;;;;;;16.97;3.67;;;;;;;28.16;100.00;101462.25;5077837;28;19912;-46
2022/08/25 07:36:25;;;;;;;4.93;2.67;;;;;;;28.14;100.00;101465.31;5078246;28;20061;-50
2022/08/25 07:38:52;;;;;;;4.70;3.23;;;;;;;28.25;100.00;101471.44;5076296;28;20036;-50
2022/08/25 07:41:17;;;;;;;;;;;;;;;28.38;99.58;101467.13;5078281;28;20054;-48
2022/08/25 07:43:43;;;;;;;8.70;3.23;;;;;;;28.87;95.82;101473.13;5074111;28;19947;-49
2022/08/25 07:46:09;;;;;;;;;;;;;;;28.92;97.36;101466.72;5083186;28;20044;-49
2022/08/25 07:48:34;;;;;;;7.23;3.00;;;;;;;28.94;96.45;101469.97;5071829;28;20198;-49
2022/08/25 07:51:05;;;;;;;;;;;;;;;28.86;96.41;101462.44;5078105;28;20043;-50
2022/08/25 07:53:30;;;;;;;15.63;4.90;;;;;;;28.97;96.36;101461.09;5077844;28;19930;-46
2022/08/25 07:55:56;;;;;;;;;;;;;;;29.08;94.74;101467.22;5079360;28;20037;-49
2022/08/25 07:58:21;;;;;;;6.47;3.43;;;;;;;29.25;93.61;101463.03;5083266;28;19919;-49
2022/08/25 08:00:47;;;;;;;;;;;;;;;29.35;92.14;101457.28;5083593;28;20092;-48
2022/08/25 08:03:13;;;;;;;7.40;3.47;;;;;;;29.80;90.24;101456.59;5085602;28;19920;-50
2022/08/25 08:05:39;;;;;;;9.53;3.17;;;;;;;29.91;89.27;101463.47;5081412;28;20092;-49
2022/08/25 08:08:05;;;;;;;;;;;;;;;30.18;87.02;101460.94;5082390;28;20044;-48
2022/08/25 08:10:31;;;;;;;9.57;3.30;;;;;;;30.37;86.69;101457.97;5081023;28;19935;-48
2022/08/25 08:12:56;;;;;;;;;;;;;;;30.44;86.55;101458.31;5083530;28;20036;-48
2022/08/25 08:15:22;;;;;;;5.77;3.17;;;;;;;30.29;85.87;101455.97;5078225;28;19920;-53
2022/08/25 08:17:48;;;;;;;9.27;3.13;;;;;;;30.40;85.41;101451.00;5081185;28;20032;-53
2022/08/25 08:20:13;;;;;;;11.47;3.57;;;;;;;30.44;85.16;101447.28;5081677;28;20036;-49
2022/08/25 08:22:42;;;;;;;11.27;3.13;;;;;;;30.52;83.91;101445.69;5083804;28;20029;-50
2022/08/25 08:25:09;;;;;;;9.32;2.55;;;;;;;30.62;82.78;101450.16;5080509;28;20033;-48
2022/08/25 08:27:34;;;;;;;8.68;3.03;;;;;;;30.65;86.17;101446.75;5078104;28;20029;-52
2022/08/25 08:30:01;;;;;;;10.68;3.35;;;;;;;30.72;84.92;101447.13;5081317;28;20100;-52
2022/08/25 08:32:27;;;;;;;7.40;2.80;;;;;;;30.70;84.46;101449.41;5079687;28;20025;-52
2022/08/25 08:34:52;;;;;;;9.93;3.00;;;;;;;30.91;84.32;101451.59;5081975;28;20097;-49
2022/08/25 08:37:18;;;;;;;10.90;3.05;;;;;;;31.01;84.43;101447.69;5078878;28;20093;-53
2022/08/25 08:39:44;;;;;;;14.68;3.35;;;;;;;31.22;82.27;101455.41;5080284;28;20042;-51
2022/08/25 08:42:38;;;;;;;12.73;3.70;;;;;;;31.37;81.34;101454.94;5083218;28;20067;-50
2022/08/25 08:45:18;;;;;;;11.60;3.30;;;;;;;31.39;80.80;101454.63;5080767;28;20059;-52
2022/08/25 08:48:01;;;;;;;15.25;2.97;;;;;;;31.59;80.12;101444.88;5082928;28;20025;-51
2022/08/25 08:50:49;;;;;;;7.00;2.97;;;;;;;31.65;78.78;101448.31;5076455;28;20033;-50
2022/08/25 08:53:38;;;;;;;14.43;3.55;;;;;;;31.95;74.76;101446.53;5076277;28;20100;-50
2022/08/25 08:56:15;;;;;;;17.10;3.22;;;;;;;32.10;73.80;101449.91;5071555;28;20036;-47
2022/08/25 08:59:24;;;;;;;8.43;3.00;;;;;;;32.07;73.25;101447.78;5076270;28;20033;-46
2022/08/25 09:01:58;;;;;;;13.32;2.92;;;;;;;32.21;72.19;101448.44;5053212;28;20041;-48
2022/08/25 09:04:52;;;;;;;12.82;3.05;;;;;;;32.62;69.68;101448.97;5051220;28;20051;-52
2022/08/25 09:07:24;;;;;;;6.70;3.10;;;;;;;32.75;71.28;101444.34;5072354;28;20109;-49
2022/08/25 09:09:50;;;;;;;6.38;2.67;;;;;;;32.88;70.51;101448.06;5076053;28;20066;-53
2022/08/25 09:12:33;;;;;;;13.88;2.95;;;;;;;33.09;67.20;101447.28;5076169;28;21632;-52
2022/08/25 09:16:53;;;;;;;8.05;2.53;;;;;;;33.55;64.63;101444.69;5077989;28;20040;-50
2022/08/25 09:18:25;;;;;;;7.95;2.97;;;;;;;34.18;63.02;101454.88;5082122;28;20059;-45
2022/08/25 09:21:06;;;;;;;6.50;2.90;;;;;;;34.85;58.76;101445.63;5081390;28;20033;-50
2022/08/25 09:23:52;;;;;;;6.35;2.72;;;;;;;35.38;56.54;101455.97;5080095;28;20055;-48
2022/08/25 09:26:36;;;;;;;9.98;3.20;;;;;;;35.68;54.29;101461.22;5078708;28;20043;-49
2022/08/25 09:29:09;;;;;;;8.90;2.70;;;;;;;36.56;51.73;101463.22;5073084;28;20037;-48
2022/08/25 09:31:37;;;;;;;9.50;2.50;;;;;;;37.09;48.26;101464.03;5073171;28;20089;-46
2022/08/25 09:34:11;;;;;;;5.47;2.47;;;;;;;37.63;46.16;101461.63;5076234;28;20125;-49
2022/08/25 09:36:36;;;;;;;9.07;2.35;;;;;;;38.22;45.29;101464.34;5075506;28;20069;-49
2022/08/25 09:39:03;;;;;;;5.70;2.40;;;;;;;38.30;43.96;101461.31;5077481;28;20032;-46
2022/08/25 09:41:49;;;;;;;10.02;2.67;;;;;;;38.60;41.92;101451.44;5075711;28;20029;-47
2022/08/25 09:44:20;;;;;;;7.63;2.95;;;;;;;39.00;41.06;101463.22;5077739;28;20096;-48
2022/08/25 09:47:14;;;;;;;11.05;2.55;;;;;;;39.87;39.34;101458.75;5074830;28;20044;-51
2022/08/25 09:49:55;;;;;;;6.30;2.45;;;;;;;40.20;37.87;101450.66;5079267;28;20036;-51
2022/08/25 09:52:27;;;;;;;11.25;2.50;;;;;;;41.15;36.60;101458.53;5080993;28;20029;-49
2022/08/25 09:54:55;;;;;;;8.45;2.42;;;;;;;41.47;35.94;101457.88;5082847;28;20033;-50
2022/08/25 09:57:42;;;;;;;4.95;2.55;;;;;;;41.70;35.16;101454.78;5078143;28;20124;-48
2022/08/25 10:00:17;;;;;;;5.13;2.20;;;;;;;42.05;34.08;101454.44;5075482;28;20047;-48
2022/08/25 10:03:04;;;;;;;7.93;2.45;;;;;;;42.17;34.02;101461.69;5075102;28;20053;-47
2022/08/25 10:05:34;;;;;;;7.15;2.30;;;;;;;42.11;32.41;101453.66;5070529;28;20033;-48
2022/08/25 10:08:08;;;;;;;6.10;2.08;;;;;;;42.61;32.39;101452.03;5075952;28;20032;-48
2022/08/25 10:10:44;;;;;;;4.43;2.00;;;;;;;43.04;32.07;101450.34;5072335;28;20059;-51
2022/08/25 10:13:17;;;;;;;6.15;1.75;;;;;;;43.45;31.86;101441.34;5073898;28;20051;-49
2022/08/25 10:15:42;;;;;;;9.13;2.40;;;;;;;43.53;30.28;101442.91;5078269;28;20048;-49
2022/08/25 10:18:20;;;;;;;9.48;2.20;;;;;;;43.42;29.82;101448.59;5077952;28;20043;-54
2022/08/25 10:21:02;;;;;;;9.90;1.83;;;;;;;43.84;29.29;101434.72;5075477;28;20037;-51
2022/08/25 10:23:28;;;;;;;3.97;1.98;;;;;;;44.10;31.16;101429.66;5075815;28;20043;-52
2022/08/25 10:25:54;;;;;;;8.90;2.33;;;;;;;44.32;29.14;101429.50;5077194;28;20037;-47
2022/08/25 10:28:45;;;;;;;4.00;1.95;;;;;;;44.69;27.41;101427.91;5078932;28;20029;-50
2022/08/25 10:31:45;;;;;;;8.68;2.63;;;;;;;44.69;29.01;101429.97;5076271;28;20028;-49
2022/08/25 10:34:20;;;;;;;5.82;2.63;;;;;;;44.73;30.15;101419.44;5081786;28;20024;-51
2022/08/25 10:36:49;;;;;;;10.43;2.72;;;;;;;44.53;30.36;101405.94;5073694;28;20080;-52
2022/08/25 10:39:37;;;;;;;5.50;2.60;;;;;;;44.81;29.85;101408.88;5074183;28;20117;-54
2022/08/25 10:42:38;;;;;;;8.55;2.88;;;;;;;45.01;29.42;101422.38;5071080;28;20088;-47
2022/08/25 10:48:24;;;;;;;6.55;2.42;;;;;;;45.60;28.75;101401.41;5069383;28;20041;-46
2022/08/25 10:51:00;;;;;;;7.07;2.35;;;;;;;45.55;28.63;101399.03;5073595;28;20055;-48
2022/08/25 10:53:59;;;;;;;10.75;2.72;;;;;;;45.95;27.63;101398.44;5073992;28;20040;-50
2022/08/25 10:56:42;;;;;;;6.43;2.20;;;;;;;45.96;27.84;101398.00;5075803;28;20028;-51
2022/08/25 10:59:20;;;;;;;5.32;2.50;;;;;;;46.52;26.99;101390.16;5075274;28;20041;-48
2022/08/25 11:02:16;;;;;;;6.72;2.13;;;;;;;47.36;25.92;101383.56;5074283;28;20075;-53
2022/08/25 11:04:51;;;;;;;9.85;2.70;;;;;;;47.46;25.77;101384.56;5076907;28;20033;-48
2022/08/25 11:07:25;;;;;;;12.65;2.65;;;;;;;47.49;25.30;101378.78;5077305;28;20029;-52
2022/08/25 11:09:56;;;;;;;7.05;2.47;;;;;;;47.46;25.36;101376.84;5079965;28;20032;-49
2022/08/25 11:12:30;;;;;;;3.85;1.80;;;;;;;47.01;25.39;101377.47;5069417;28;20103;-50
2022/08/25 11:15:00;;;;;;;6.35;2.08;;;;;;;47.15;24.87;101382.81;5074442;28;20054;-51
2022/08/25 11:17:50;;;;;;;13.85;2.50;;;;;;;46.50;24.36;101370.00;5072349;28;20052;-47
2022/08/25 11:20:20;;;;;;;5.25;1.90;;;;;;;46.34;24.02;101370.72;5078473;28;20028;-51
2022/08/25 11:22:54;;;;;;;8.55;2.22;;;;;;;45.74;25.03;101360.84;5077293;28;20033;-51
2022/08/25 11:25:28;;;;;;;15.13;3.03;;;;;;;45.31;26.42;101350.97;5074656;28;20072;-50
2022/08/25 11:27:59;;;;;;;11.90;4.78;;;;;;;45.65;25.86;101357.72;5072847;28;20104;-49
2022/08/25 11:30:25;;;;;;;5.00;2.60;;;;;;;45.86;25.51;101356.63;5081122;28;20056;-47
2022/08/25 11:32:53;;;;;;;7.90;2.25;;;;;;;45.05;26.02;101338.47;5081913;28;20036;-47
2022/08/25 11:35:36;;;;;;;5.63;1.90;;;;;;;45.34;25.48;101344.53;5082229;28;20045;-50
2022/08/25 11:38:49;;;;;;;3.95;2.03;;;;;;;45.14;25.06;101341.56;5081980;28;20101;-50
2022/08/25 11:41:30;;;;;;;7.13;2.05;;;;;;;46.09;25.09;101336.00;5056794;28;20064;-52
2022/08/25 11:44:39;;;;;;;8.65;1.98;;;;;;;46.24;24.87;101335.75;5083250;28;20029;-49
2022/08/25 11:47:29;;;;;;;8.48;2.17;;;;;;;46.19;23.95;101336.28;5078342;28;20041;-51